sensor_id;sensor_type;location;lat;lon;timestamp;P1;durP1;ratioP1;P2;durP2;ratioP2
70045;SDS011;57385;41.832;23.494;2022-08-20T00:00:13;9.60;;;8.35;;
70045;SDS011;57385;41.832;23.494;2022-08-20T00:00:36;9.63;;;8.63;;
70045;SDS011;57385;41.832;23.494;2022-08-20T00:00:59;9.95;;;8.77;;
70045;SDS011;57385;41.832;23.494;2022-08-20T00:01:18;11.48;;;8.45;;
70045;SDS011;57385;41.832;23.494;2022-08-20T00:01:38;11.37;;;8.77;;
70045;SDS011;57385;41.832;23.494;2022-08-20T00:01:57;9.70;;;8.48;;
70045;SDS011;57385;41.832;23.494;2022-08-20T00:02:16;10.80;;;8.97;;
70045;SDS011;57385;41.832;23.494;2022-08-20T00:02:42;11.82;;;9.32;;
70045;SDS011;57385;41.832;23.494;2022-08-20T00:03:10;9.57;;;8.57;;
70045;SDS011;57385;41.832;23.494;2022-08-20T00:03:38;11.10;;;8.52;;
70045;SDS011;57385;41.832;23.494;2022-08-20T00:03:59;10.95;;;8.77;;
70045;SDS011;57385;41.832;23.494;2022-08-20T00:04:18;11.73;;;8.63;;
70045;SDS011;57385;41.832;23.494;2022-08-20T00:04:38;11.32;;;8.70;;
70045;SDS011;57385;41.832;23.494;2022-08-20T00:04:57;10.40;;;9.30;;
70045;SDS011;57385;41.832;23.494;2022-08-20T00:05:20;9.85;;;8.93;;
70045;SDS011;57385;41.832;23.494;2022-08-20T00:05:44;10.88;;;9.23;;
70045;SDS011;57385;41.832;23.494;2022-08-20T00:06:10;10.88;;;8.80;;
70045;SDS011;57385;41.832;23.494;2022-08-20T00:06:32;11.45;;;8.60;;
70045;SDS011;57385;41.832;23.494;2022-08-20T00:06:52;12.50;;;8.50;;
70045;SDS011;57385;41.832;23.494;2022-08-20T00:07:12;12.53;;;8.90;;
70045;SDS011;57385;41.832;23.494;2022-08-20T00:07:32;10.90;;;9.00;;
70045;SDS011;57385;41.832;23.494;2022-08-20T00:07:52;11.35;;;8.68;;
70045;SDS011;57385;41.832;23.494;2022-08-20T00:08:11;14.15;;;8.85;;
70045;SDS011;57385;41.832;23.494;2022-08-20T00:08:32;10.68;;;8.90;;
70045;SDS011;57385;41.832;23.494;2022-08-20T00:08:52;9.50;;;8.50;;
70045;SDS011;57385;41.832;23.494;2022-08-20T00:09:11;10.02;;;8.88;;
70045;SDS011;57385;41.832;23.494;2022-08-20T00:09:31;11.13;;;8.70;;
70045;SDS011;57385;41.832;23.494;2022-08-20T00:09:50;10.40;;;8.55;;
70045;SDS011;57385;41.832;23.494;2022-08-20T00:10:09;9.77;;;8.77;;
70045;SDS011;57385;41.832;23.494;2022-08-20T00:10:30;10.10;;;8.70;;
70045;SDS011;57385;41.832;23.494;2022-08-20T00:10:51;10.35;;;8.98;;
70045;SDS011;57385;41.832;23.494;2022-08-20T00:11:14;10.85;;;8.70;;
70045;SDS011;57385;41.832;23.494;2022-08-20T00:11:36;10.60;;;8.90;;
70045;SDS011;57385;41.832;23.494;2022-08-20T00:11:56;11.18;;;9.00;;
70045;SDS011;57385;41.832;23.494;2022-08-20T00:12:16;12.67;;;9.00;;
70045;SDS011;57385;41.832;23.494;2022-08-20T00:12:35;11.00;;;8.20;;
70045;SDS011;57385;41.832;23.494;2022-08-20T00:12:56;9.77;;;8.70;;
70045;SDS011;57385;41.832;23.494;2022-08-20T00:13:17;10.23;;;9.05;;
70045;SDS011;57385;41.832;23.494;2022-08-20T00:13:41;9.73;;;8.52;;
70045;SDS011;57385;41.832;23.494;2022-08-20T00:14:04;10.95;;;9.20;;
70045;SDS011;57385;41.832;23.494;2022-08-20T00:14:24;10.90;;;8.90;;
70045;SDS011;57385;41.832;23.494;2022-08-20T00:14:44;10.20;;;8.80;;
70045;SDS011;57385;41.832;23.494;2022-08-20T00:15:04;9.65;;;8.60;;
70045;SDS011;57385;41.832;23.494;2022-08-20T00:15:26;13.07;;;9.15;;
70045;SDS011;57385;41.832;23.494;2022-08-20T00:15:49;11.25;;;8.75;;
70045;SDS011;57385;41.832;23.494;2022-08-20T00:16:09;10.63;;;8.57;;
70045;SDS011;57385;41.832;23.494;2022-08-20T00:16:32;10.77;;;8.48;;
70045;SDS011;57385;41.832;23.494;2022-08-20T00:16:55;11.98;;;8.93;;
70045;SDS011;57385;41.832;23.494;2022-08-20T00:17:15;11.80;;;9.07;;
70045;SDS011;57385;41.832;23.494;2022-08-20T00:17:34;12.70;;;9.00;;
70045;SDS011;57385;41.832;23.494;2022-08-20T00:17:54;11.30;;;9.50;;
70045;SDS011;57385;41.832;23.494;2022-08-20T00:18:15;12.25;;;9.75;;
70045;SDS011;57385;41.832;23.494;2022-08-20T00:18:34;10.75;;;9.60;;
70045;SDS011;57385;41.832;23.494;2022-08-20T00:18:54;10.20;;;9.20;;
70045;SDS011;57385;41.832;23.494;2022-08-20T00:19:13;10.03;;;9.03;;
70045;SDS011;57385;41.832;23.494;2022-08-20T00:19:33;10.27;;;8.85;;
70045;SDS011;57385;41.832;23.494;2022-08-20T00:19:52;11.57;;;9.73;;
70045;SDS011;57385;41.832;23.494;2022-08-20T00:20:12;10.75;;;9.05;;
70045;SDS011;57385;41.832;23.494;2022-08-20T00:20:35;12.05;;;9.00;;
70045;SDS011;57385;41.832;23.494;2022-08-20T00:20:56;11.07;;;9.48;;
70045;SDS011;57385;41.832;23.494;2022-08-20T00:21:17;12.03;;;9.73;;
70045;SDS011;57385;41.832;23.494;2022-08-20T00:21:38;11.90;;;9.10;;
70045;SDS011;57385;41.832;23.494;2022-08-20T00:21:57;10.53;;;9.27;;
70045;SDS011;57385;41.832;23.494;2022-08-20T00:22:17;10.68;;;9.07;;
70045;SDS011;57385;41.832;23.494;2022-08-20T00:22:37;10.00;;;9.05;;
70045;SDS011;57385;41.832;23.494;2022-08-20T00:22:57;10.60;;;9.52;;
70045;SDS011;57385;41.832;23.494;2022-08-20T00:23:17;10.75;;;9.75;;
70045;SDS011;57385;41.832;23.494;2022-08-20T00:23:38;10.63;;;9.48;;
70045;SDS011;57385;41.832;23.494;2022-08-20T00:23:59;12.05;;;9.48;;
70045;SDS011;57385;41.832;23.494;2022-08-20T00:24:18;12.43;;;10.38;;
70045;SDS011;57385;41.832;23.494;2022-08-20T00:24:38;12.53;;;10.10;;
70045;SDS011;57385;41.832;23.494;2022-08-20T00:24:57;15.00;;;10.25;;
70045;SDS011;57385;41.832;23.494;2022-08-20T00:25:17;10.93;;;9.80;;
70045;SDS011;57385;41.832;23.494;2022-08-20T00:25:37;10.23;;;9.23;;
70045;SDS011;57385;41.832;23.494;2022-08-20T00:25:57;11.90;;;9.48;;
70045;SDS011;57385;41.832;23.494;2022-08-20T00:26:17;11.32;;;9.90;;
70045;SDS011;57385;41.832;23.494;2022-08-20T00:26:36;13.50;;;10.15;;
70045;SDS011;57385;41.832;23.494;2022-08-20T00:26:56;12.73;;;10.00;;
70045;SDS011;57385;41.832;23.494;2022-08-20T00:27:15;15.40;;;10.20;;
70045;SDS011;57385;41.832;23.494;2022-08-20T00:27:35;14.63;;;10.60;;
70045;SDS011;57385;41.832;23.494;2022-08-20T00:27:55;12.40;;;9.77;;
70045;SDS011;57385;41.832;23.494;2022-08-20T00:28:16;12.38;;;10.05;;
70045;SDS011;57385;41.832;23.494;2022-08-20T00:28:36;11.95;;;10.25;;
70045;SDS011;57385;41.832;23.494;2022-08-20T00:28:56;11.32;;;10.15;;
70045;SDS011;57385;41.832;23.494;2022-08-20T00:29:15;12.83;;;10.03;;
70045;SDS011;57385;41.832;23.494;2022-08-20T00:29:35;15.45;;;10.63;;
70045;SDS011;57385;41.832;23.494;2022-08-20T00:29:54;12.20;;;10.43;;
70045;SDS011;57385;41.832;23.494;2022-08-20T00:30:14;10.75;;;9.65;;
70045;SDS011;57385;41.832;23.494;2022-08-20T00:30:35;12.93;;;9.55;;
70045;SDS011;57385;41.832;23.494;2022-08-20T00:30:54;12.98;;;10.10;;
70045;SDS011;57385;41.832;23.494;2022-08-20T00:31:15;11.70;;;9.70;;
70045;SDS011;57385;41.832;23.494;2022-08-20T00:31:36;11.07;;;9.90;;
70045;SDS011;57385;41.832;23.494;2022-08-20T00:31:55;13.27;;;10.90;;
70045;SDS011;57385;41.832;23.494;2022-08-20T00:32:15;16.73;;;12.57;;
70045;SDS011;57385;41.832;23.494;2022-08-20T00:32:41;16.77;;;12.65;;
70045;SDS011;57385;41.832;23.494;2022-08-20T00:33:03;14.80;;;12.68;;
70045;SDS011;57385;41.832;23.494;2022-08-20T00:33:25;16.75;;;12.88;;
70045;SDS011;57385;41.832;23.494;2022-08-20T00:33:45;16.45;;;12.65;;
70045;SDS011;57385;41.832;23.494;2022-08-20T00:34:05;16.88;;;12.57;;
70045;SDS011;57385;41.832;23.494;2022-08-20T00:34:24;14.77;;;12.60;;
70045;SDS011;57385;41.832;23.494;2022-08-20T00:34:44;16.77;;;12.67;;
70045;SDS011;57385;41.832;23.494;2022-08-20T00:35:03;14.63;;;12.97;;
70045;SDS011;57385;41.832;23.494;2022-08-20T00:35:24;14.52;;;12.77;;
70045;SDS011;57385;41.832;23.494;2022-08-20T00:35:48;17.25;;;13.10;;
70045;SDS011;57385;41.832;23.494;2022-08-20T00:36:10;17.33;;;13.48;;
70045;SDS011;57385;41.832;23.494;2022-08-20T00:36:29;18.40;;;13.27;;
70045;SDS011;57385;41.832;23.494;2022-08-20T00:36:49;16.83;;;12.88;;
70045;SDS011;57385;41.832;23.494;2022-08-20T00:37:08;14.90;;;12.37;;
70045;SDS011;57385;41.832;23.494;2022-08-20T00:37:28;13.98;;;11.52;;
70045;SDS011;57385;41.832;23.494;2022-08-20T00:37:47;14.23;;;10.70;;
70045;SDS011;57385;41.832;23.494;2022-08-20T00:38:07;14.23;;;10.23;;
70045;SDS011;57385;41.832;23.494;2022-08-20T00:38:27;13.25;;;10.18;;
70045;SDS011;57385;41.832;23.494;2022-08-20T00:38:46;12.48;;;9.75;;
70045;SDS011;57385;41.832;23.494;2022-08-20T00:39:06;13.70;;;10.33;;
70045;SDS011;57385;41.832;23.494;2022-08-20T00:39:25;16.48;;;10.68;;
70045;SDS011;57385;41.832;23.494;2022-08-20T00:39:45;16.17;;;10.43;;
70045;SDS011;57385;41.832;23.494;2022-08-20T00:40:05;13.68;;;10.23;;
70045;SDS011;57385;41.832;23.494;2022-08-20T00:40:27;13.95;;;10.50;;
70045;SDS011;57385;41.832;23.494;2022-08-20T00:40:51;11.98;;;10.05;;
70045;SDS011;57385;41.832;23.494;2022-08-20T00:41:16;12.55;;;10.23;;
70045;SDS011;57385;41.832;23.494;2022-08-20T00:41:40;13.88;;;10.20;;
70045;SDS011;57385;41.832;23.494;2022-08-20T00:42:02;11.33;;;9.90;;
70045;SDS011;57385;41.832;23.494;2022-08-20T00:42:22;10.85;;;9.75;;
70045;SDS011;57385;41.832;23.494;2022-08-20T00:42:43;11.50;;;9.80;;
70045;SDS011;57385;41.832;23.494;2022-08-20T00:43:06;11.98;;;9.65;;
70045;SDS011;57385;41.832;23.494;2022-08-20T00:43:42;10.82;;;9.00;;
70045;SDS011;57385;41.832;23.494;2022-08-20T00:44:24;12.50;;;9.40;;
70045;SDS011;57385;41.832;23.494;2022-08-20T00:44:44;11.17;;;9.03;;
70045;SDS011;57385;41.832;23.494;2022-08-20T00:45:05;11.60;;;8.52;;
70045;SDS011;57385;41.832;23.494;2022-08-20T00:45:26;11.80;;;8.63;;
70045;SDS011;57385;41.832;23.494;2022-08-20T00:45:47;10.02;;;8.85;;
70045;SDS011;57385;41.832;23.494;2022-08-20T00:46:18;10.87;;;8.90;;
70045;SDS011;57385;41.832;23.494;2022-08-20T00:46:38;12.50;;;8.95;;
70045;SDS011;57385;41.832;23.494;2022-08-20T00:46:59;13.07;;;9.38;;
70045;SDS011;57385;41.832;23.494;2022-08-20T00:47:19;11.37;;;9.27;;
70045;SDS011;57385;41.832;23.494;2022-08-20T00:47:38;9.77;;;8.65;;
70045;SDS011;57385;41.832;23.494;2022-08-20T00:47:58;10.40;;;8.60;;
70045;SDS011;57385;41.832;23.494;2022-08-20T00:48:17;11.35;;;8.65;;
70045;SDS011;57385;41.832;23.494;2022-08-20T00:48:37;10.43;;;8.40;;
70045;SDS011;57385;41.832;23.494;2022-08-20T00:48:59;9.60;;;8.55;;
70045;SDS011;57385;41.832;23.494;2022-08-20T00:49:21;9.35;;;8.45;;
70045;SDS011;57385;41.832;23.494;2022-08-20T00:49:42;8.90;;;8.00;;
70045;SDS011;57385;41.832;23.494;2022-08-20T00:50:02;9.23;;;8.43;;
70045;SDS011;57385;41.832;23.494;2022-08-20T00:50:26;10.90;;;8.70;;
70045;SDS011;57385;41.832;23.494;2022-08-20T00:50:49;12.57;;;8.82;;
70045;SDS011;57385;41.832;23.494;2022-08-20T00:51:47;12.30;;;8.60;;
70045;SDS011;57385;41.832;23.494;2022-08-20T00:52:12;9.65;;;8.50;;
70045;SDS011;57385;41.832;23.494;2022-08-20T00:52:36;9.68;;;8.68;;
70045;SDS011;57385;41.832;23.494;2022-08-20T00:52:56;10.18;;;8.45;;
70045;SDS011;57385;41.832;23.494;2022-08-20T00:53:16;11.25;;;8.50;;
70045;SDS011;57385;41.832;23.494;2022-08-20T00:53:37;11.25;;;8.70;;
70045;SDS011;57385;41.832;23.494;2022-08-20T00:54:01;12.82;;;8.93;;
70045;SDS011;57385;41.832;23.494;2022-08-20T00:54:27;10.45;;;9.05;;
70045;SDS011;57385;41.832;23.494;2022-08-20T00:54:54;9.90;;;8.90;;
70045;SDS011;57385;41.832;23.494;2022-08-20T00:55:18;9.88;;;8.88;;
70045;SDS011;57385;41.832;23.494;2022-08-20T00:55:40;11.48;;;9.20;;
70045;SDS011;57385;41.832;23.494;2022-08-20T00:56:00;10.30;;;9.20;;
70045;SDS011;57385;41.832;23.494;2022-08-20T00:56:20;10.40;;;8.77;;
70045;SDS011;57385;41.832;23.494;2022-08-20T00:56:41;11.32;;;8.65;;
70045;SDS011;57385;41.832;23.494;2022-08-20T00:57:05;9.93;;;8.95;;
70045;SDS011;57385;41.832;23.494;2022-08-20T00:57:28;10.73;;;8.60;;
70045;SDS011;57385;41.832;23.494;2022-08-20T00:57:55;11.60;;;9.00;;
70045;SDS011;57385;41.832;23.494;2022-08-20T00:58:18;10.10;;;8.95;;
70045;SDS011;57385;41.832;23.494;2022-08-20T00:58:38;9.77;;;8.77;;
70045;SDS011;57385;41.832;23.494;2022-08-20T00:58:59;11.88;;;8.88;;
70045;SDS011;57385;41.832;23.494;2022-08-20T00:59:20;12.52;;;9.52;;
70045;SDS011;57385;41.832;23.494;2022-08-20T00:59:44;11.18;;;9.10;;
70045;SDS011;57385;41.832;23.494;2022-08-20T01:00:11;12.10;;;9.57;;
70045;SDS011;57385;41.832;23.494;2022-08-20T01:00:42;10.77;;;9.32;;
70045;SDS011;57385;41.832;23.494;2022-08-20T01:01:04;12.30;;;9.40;;
70045;SDS011;57385;41.832;23.494;2022-08-20T01:01:25;13.32;;;9.75;;
70045;SDS011;57385;41.832;23.494;2022-08-20T01:01:45;11.77;;;10.05;;
70045;SDS011;57385;41.832;23.494;2022-08-20T01:02:06;10.63;;;9.30;;
70045;SDS011;57385;41.832;23.494;2022-08-20T01:02:29;12.70;;;9.70;;
70045;SDS011;57385;41.832;23.494;2022-08-20T01:02:50;12.65;;;9.90;;
70045;SDS011;57385;41.832;23.494;2022-08-20T01:03:10;10.50;;;9.43;;
70045;SDS011;57385;41.832;23.494;2022-08-20T01:03:31;11.13;;;9.93;;
70045;SDS011;57385;41.832;23.494;2022-08-20T01:03:51;11.27;;;9.65;;
70045;SDS011;57385;41.832;23.494;2022-08-20T01:04:11;11.10;;;9.77;;
70045;SDS011;57385;41.832;23.494;2022-08-20T01:04:31;12.40;;;9.70;;
70045;SDS011;57385;41.832;23.494;2022-08-20T01:04:52;12.90;;;9.93;;
70045;SDS011;57385;41.832;23.494;2022-08-20T01:05:13;11.30;;;9.65;;
70045;SDS011;57385;41.832;23.494;2022-08-20T01:05:32;14.03;;;9.77;;
70045;SDS011;57385;41.832;23.494;2022-08-20T01:05:52;14.63;;;9.70;;
70045;SDS011;57385;41.832;23.494;2022-08-20T01:06:12;11.27;;;9.75;;
70045;SDS011;57385;41.832;23.494;2022-08-20T01:06:31;12.13;;;9.77;;
70045;SDS011;57385;41.832;23.494;2022-08-20T01:06:51;13.02;;;9.80;;
70045;SDS011;57385;41.832;23.494;2022-08-20T01:07:11;11.05;;;9.60;;
70045;SDS011;57385;41.832;23.494;2022-08-20T01:07:30;12.27;;;9.35;;
70045;SDS011;57385;41.832;23.494;2022-08-20T01:07:50;11.00;;;9.57;;
70045;SDS011;57385;41.832;23.494;2022-08-20T01:08:11;12.35;;;9.93;;
70045;SDS011;57385;41.832;23.494;2022-08-20T01:08:31;11.82;;;9.88;;
70045;SDS011;57385;41.832;23.494;2022-08-20T01:08:51;12.77;;;9.27;;
70045;SDS011;57385;41.832;23.494;2022-08-20T01:09:10;13.70;;;9.85;;
70045;SDS011;57385;41.832;23.494;2022-08-20T01:09:30;13.47;;;10.03;;
70045;SDS011;57385;41.832;23.494;2022-08-20T01:09:50;12.98;;;10.18;;
70045;SDS011;57385;41.832;23.494;2022-08-20T01:10:12;10.63;;;9.53;;
70045;SDS011;57385;41.832;23.494;2022-08-20T01:10:36;12.20;;;9.70;;
70045;SDS011;57385;41.832;23.494;2022-08-20T01:10:58;12.20;;;9.95;;
70045;SDS011;57385;41.832;23.494;2022-08-20T01:11:18;12.27;;;9.75;;
70045;SDS011;57385;41.832;23.494;2022-08-20T01:11:38;10.70;;;9.57;;
70045;SDS011;57385;41.832;23.494;2022-08-20T01:11:57;10.68;;;9.57;;
70045;SDS011;57385;41.832;23.494;2022-08-20T01:12:17;12.83;;;10.20;;
70045;SDS011;57385;41.832;23.494;2022-08-20T01:12:37;13.07;;;9.75;;
70045;SDS011;57385;41.832;23.494;2022-08-20T01:12:58;11.50;;;9.85;;
70045;SDS011;57385;41.832;23.494;2022-08-20T01:13:20;11.55;;;10.05;;
70045;SDS011;57385;41.832;23.494;2022-08-20T01:13:42;11.00;;;9.75;;
70045;SDS011;57385;41.832;23.494;2022-08-20T01:14:05;10.23;;;9.15;;
70045;SDS011;57385;41.832;23.494;2022-08-20T01:14:28;11.70;;;9.95;;
70045;SDS011;57385;41.832;23.494;2022-08-20T01:14:48;10.98;;;9.70;;
70045;SDS011;57385;41.832;23.494;2022-08-20T01:15:08;12.30;;;10.05;;
70045;SDS011;57385;41.832;23.494;2022-08-20T01:15:30;13.65;;;9.52;;
70045;SDS011;57385;41.832;23.494;2022-08-20T01:15:50;10.93;;;9.07;;
70045;SDS011;57385;41.832;23.494;2022-08-20T01:16:21;10.30;;;9.02;;
70045;SDS011;57385;41.832;23.494;2022-08-20T01:16:43;13.00;;;9.90;;
70045;SDS011;57385;41.832;23.494;2022-08-20T01:17:06;12.95;;;9.95;;
70045;SDS011;57385;41.832;23.494;2022-08-20T01:17:27;11.00;;;9.90;;
70045;SDS011;57385;41.832;23.494;2022-08-20T01:17:50;11.25;;;9.73;;
70045;SDS011;57385;41.832;23.494;2022-08-20T01:18:16;10.38;;;9.15;;
70045;SDS011;57385;41.832;23.494;2022-08-20T01:18:38;11.15;;;9.52;;
70045;SDS011;57385;41.832;23.494;2022-08-20T01:18:58;11.10;;;9.93;;
70045;SDS011;57385;41.832;23.494;2022-08-20T01:19:20;10.68;;;9.50;;
70045;SDS011;57385;41.832;23.494;2022-08-20T01:19:48;12.82;;;9.32;;
70045;SDS011;57385;41.832;23.494;2022-08-20T01:20:13;10.75;;;9.50;;
70045;SDS011;57385;41.832;23.494;2022-08-20T01:20:40;12.45;;;9.77;;
70045;SDS011;57385;41.832;23.494;2022-08-20T01:21:04;11.82;;;9.05;;
70045;SDS011;57385;41.832;23.494;2022-08-20T01:21:25;11.43;;;9.57;;
70045;SDS011;57385;41.832;23.494;2022-08-20T01:21:45;12.02;;;9.30;;
70045;SDS011;57385;41.832;23.494;2022-08-20T01:22:05;10.82;;;9.40;;
70045;SDS011;57385;41.832;23.494;2022-08-20T01:23:20;10.25;;;9.18;;
70045;SDS011;57385;41.832;23.494;2022-08-20T01:24:31;11.48;;;9.82;;
70045;SDS011;57385;41.832;23.494;2022-08-20T01:24:56;10.65;;;9.55;;
70045;SDS011;57385;41.832;23.494;2022-08-20T01:25:28;11.70;;;9.55;;
70045;SDS011;57385;41.832;23.494;2022-08-20T01:26:35;10.48;;;9.15;;
70045;SDS011;57385;41.832;23.494;2022-08-20T01:26:58;11.73;;;9.68;;
70045;SDS011;57385;41.832;23.494;2022-08-20T01:27:21;12.25;;;9.30;;
70045;SDS011;57385;41.832;23.494;2022-08-20T01:27:41;11.10;;;9.57;;
70045;SDS011;57385;41.832;23.494;2022-08-20T01:28:02;10.45;;;9.40;;
70045;SDS011;57385;41.832;23.494;2022-08-20T01:29:14;10.82;;;9.18;;
70045;SDS011;57385;41.832;23.494;2022-08-20T01:29:23;10.23;;;9.13;;
70045;SDS011;57385;41.832;23.494;2022-08-20T01:29:37;10.55;;;9.45;;
70045;SDS011;57385;41.832;23.494;2022-08-20T01:29:58;10.48;;;9.38;;
70045;SDS011;57385;41.832;23.494;2022-08-20T01:30:19;11.35;;;9.68;;
70045;SDS011;57385;41.832;23.494;2022-08-20T01:30:38;11.60;;;9.38;;
70045;SDS011;57385;41.832;23.494;2022-08-20T01:30:59;12.88;;;9.20;;
70045;SDS011;57385;41.832;23.494;2022-08-20T01:31:19;11.20;;;8.93;;
70045;SDS011;57385;41.832;23.494;2022-08-20T01:31:43;10.63;;;9.63;;
70045;SDS011;57385;41.832;23.494;2022-08-20T01:32:04;11.18;;;9.55;;
70045;SDS011;57385;41.832;23.494;2022-08-20T01:32:24;12.07;;;9.32;;
70045;SDS011;57385;41.832;23.494;2022-08-20T01:32:44;12.90;;;9.73;;
70045;SDS011;57385;41.832;23.494;2022-08-20T01:33:04;11.00;;;9.88;;
70045;SDS011;57385;41.832;23.494;2022-08-20T01:33:24;10.65;;;9.40;;
70045;SDS011;57385;41.832;23.494;2022-08-20T01:33:44;11.35;;;9.02;;
70045;SDS011;57385;41.832;23.494;2022-08-20T01:34:06;11.70;;;9.32;;
70045;SDS011;57385;41.832;23.494;2022-08-20T01:34:28;10.73;;;9.10;;
70045;SDS011;57385;41.832;23.494;2022-08-20T01:34:50;10.15;;;9.15;;
70045;SDS011;57385;41.832;23.494;2022-08-20T01:35:09;10.43;;;9.27;;
70045;SDS011;57385;41.832;23.494;2022-08-20T01:35:29;10.38;;;9.27;;
70045;SDS011;57385;41.832;23.494;2022-08-20T01:35:54;10.40;;;9.13;;
70045;SDS011;57385;41.832;23.494;2022-08-20T01:36:14;10.43;;;9.43;;
70045;SDS011;57385;41.832;23.494;2022-08-20T01:36:39;10.52;;;9.43;;
70045;SDS011;57385;41.832;23.494;2022-08-20T01:37:04;11.45;;;9.80;;
70045;SDS011;57385;41.832;23.494;2022-08-20T01:37:23;10.80;;;9.70;;
70045;SDS011;57385;41.832;23.494;2022-08-20T01:37:43;10.57;;;9.40;;
70045;SDS011;57385;41.832;23.494;2022-08-20T01:38:02;10.57;;;9.10;;
70045;SDS011;57385;41.832;23.494;2022-08-20T01:38:23;12.13;;;9.32;;
70045;SDS011;57385;41.832;23.494;2022-08-20T01:38:43;12.25;;;9.40;;
70045;SDS011;57385;41.832;23.494;2022-08-20T01:39:05;11.00;;;9.60;;
70045;SDS011;57385;41.832;23.494;2022-08-20T01:39:29;10.77;;;9.73;;
70045;SDS011;57385;41.832;23.494;2022-08-20T01:39:50;10.88;;;9.82;;
70045;SDS011;57385;41.832;23.494;2022-08-20T01:40:10;10.90;;;9.60;;
70045;SDS011;57385;41.832;23.494;2022-08-20T01:42:07;11.52;;;9.73;;
70045;SDS011;57385;41.832;23.494;2022-08-20T01:42:54;10.90;;;9.55;;
70045;SDS011;57385;41.832;23.494;2022-08-20T01:43:13;10.63;;;9.53;;
70045;SDS011;57385;41.832;23.494;2022-08-20T01:43:33;12.20;;;9.65;;
70045;SDS011;57385;41.832;23.494;2022-08-20T01:43:53;13.43;;;9.63;;
70045;SDS011;57385;41.832;23.494;2022-08-20T01:44:13;11.18;;;9.82;;
70045;SDS011;57385;41.832;23.494;2022-08-20T01:44:33;11.70;;;9.80;;
70045;SDS011;57385;41.832;23.494;2022-08-20T01:44:54;10.88;;;9.48;;
70045;SDS011;57385;41.832;23.494;2022-08-20T01:45:14;10.30;;;9.30;;
70045;SDS011;57385;41.832;23.494;2022-08-20T01:45:33;10.50;;;9.50;;
70045;SDS011;57385;41.832;23.494;2022-08-20T01:45:53;11.50;;;10.30;;
70045;SDS011;57385;41.832;23.494;2022-08-20T01:46:13;10.82;;;9.52;;
70045;SDS011;57385;41.832;23.494;2022-08-20T01:46:35;10.00;;;9.00;;
70045;SDS011;57385;41.832;23.494;2022-08-20T01:46:56;13.23;;;9.57;;
70045;SDS011;57385;41.832;23.494;2022-08-20T01:47:27;12.88;;;9.98;;
70045;SDS011;57385;41.832;23.494;2022-08-20T01:47:48;11.75;;;9.80;;
70045;SDS011;57385;41.832;23.494;2022-08-20T01:48:08;11.17;;;9.43;;
70045;SDS011;57385;41.832;23.494;2022-08-20T01:48:27;11.45;;;9.68;;
70045;SDS011;57385;41.832;23.494;2022-08-20T01:48:47;12.43;;;9.60;;
70045;SDS011;57385;41.832;23.494;2022-08-20T01:49:20;14.27;;;9.77;;
70045;SDS011;57385;41.832;23.494;2022-08-20T01:49:47;12.15;;;9.90;;
70045;SDS011;57385;41.832;23.494;2022-08-20T01:50:16;10.98;;;9.50;;
70045;SDS011;57385;41.832;23.494;2022-08-20T01:50:43;10.95;;;9.68;;
70045;SDS011;57385;41.832;23.494;2022-08-20T01:51:16;10.70;;;9.68;;
70045;SDS011;57385;41.832;23.494;2022-08-20T01:51:38;10.77;;;9.68;;
70045;SDS011;57385;41.832;23.494;2022-08-20T01:51:58;10.43;;;9.37;;
70045;SDS011;57385;41.832;23.494;2022-08-20T01:52:28;10.13;;;9.15;;
70045;SDS011;57385;41.832;23.494;2022-08-20T01:53:03;12.45;;;9.20;;
70045;SDS011;57385;41.832;23.494;2022-08-20T01:53:33;10.88;;;9.10;;
70045;SDS011;57385;41.832;23.494;2022-08-20T01:53:56;11.05;;;9.80;;
70045;SDS011;57385;41.832;23.494;2022-08-20T01:54:17;13.25;;;9.95;;
70045;SDS011;57385;41.832;23.494;2022-08-20T01:54:36;11.48;;;9.77;;
70045;SDS011;57385;41.832;23.494;2022-08-20T01:54:56;11.13;;;10.00;;
70045;SDS011;57385;41.832;23.494;2022-08-20T01:55:16;10.70;;;9.63;;
70045;SDS011;57385;41.832;23.494;2022-08-20T01:55:36;11.07;;;9.43;;
70045;SDS011;57385;41.832;23.494;2022-08-20T01:55:56;10.65;;;9.55;;
70045;SDS011;57385;41.832;23.494;2022-08-20T01:56:18;10.67;;;9.60;;
70045;SDS011;57385;41.832;23.494;2022-08-20T01:57:13;11.07;;;9.90;;
70045;SDS011;57385;41.832;23.494;2022-08-20T01:57:29;12.20;;;9.70;;
70045;SDS011;57385;41.832;23.494;2022-08-20T01:57:48;11.53;;;9.70;;
70045;SDS011;57385;41.832;23.494;2022-08-20T01:58:08;11.00;;;9.90;;
70045;SDS011;57385;41.832;23.494;2022-08-20T01:58:28;10.52;;;9.52;;
70045;SDS011;57385;41.832;23.494;2022-08-20T01:58:49;11.52;;;9.52;;
70045;SDS011;57385;41.832;23.494;2022-08-20T01:59:10;11.40;;;10.20;;
70045;SDS011;57385;41.832;23.494;2022-08-20T01:59:29;10.90;;;9.80;;
70045;SDS011;57385;41.832;23.494;2022-08-20T01:59:49;11.27;;;9.20;;
70045;SDS011;57385;41.832;23.494;2022-08-20T02:00:11;11.05;;;9.95;;
70045;SDS011;57385;41.832;23.494;2022-08-20T02:00:33;11.50;;;10.32;;
70045;SDS011;57385;41.832;23.494;2022-08-20T02:00:52;10.87;;;9.77;;
70045;SDS011;57385;41.832;23.494;2022-08-20T02:01:19;10.45;;;9.43;;
70045;SDS011;57385;41.832;23.494;2022-08-20T02:01:45;11.35;;;10.13;;
70045;SDS011;57385;41.832;23.494;2022-08-20T02:02:05;12.00;;;9.68;;
70045;SDS011;57385;41.832;23.494;2022-08-20T02:02:25;11.73;;;9.77;;
70045;SDS011;57385;41.832;23.494;2022-08-20T02:02:44;13.48;;;9.98;;
70045;SDS011;57385;41.832;23.494;2022-08-20T02:03:04;13.23;;;9.50;;
70045;SDS011;57385;41.832;23.494;2022-08-20T02:03:23;13.57;;;9.80;;
70045;SDS011;57385;41.832;23.494;2022-08-20T02:03:43;13.20;;;10.18;;
70045;SDS011;57385;41.832;23.494;2022-08-20T02:04:03;11.00;;;9.90;;
70045;SDS011;57385;41.832;23.494;2022-08-20T02:04:25;10.95;;;9.95;;
70045;SDS011;57385;41.832;23.494;2022-08-20T02:04:46;10.95;;;9.93;;
70045;SDS011;57385;41.832;23.494;2022-08-20T02:05:09;11.02;;;9.93;;
70045;SDS011;57385;41.832;23.494;2022-08-20T02:05:29;10.80;;;9.70;;
70045;SDS011;57385;41.832;23.494;2022-08-20T02:05:49;13.55;;;10.13;;
70045;SDS011;57385;41.832;23.494;2022-08-20T02:06:08;14.67;;;10.40;;
70045;SDS011;57385;41.832;23.494;2022-08-20T02:06:29;11.77;;;10.57;;
70045;SDS011;57385;41.832;23.494;2022-08-20T02:06:51;12.35;;;11.15;;
70045;SDS011;57385;41.832;23.494;2022-08-20T02:07:15;12.73;;;11.15;;
70045;SDS011;57385;41.832;23.494;2022-08-20T02:07:39;15.82;;;12.15;;
70045;SDS011;57385;41.832;23.494;2022-08-20T02:07:59;16.08;;;11.93;;
70045;SDS011;57385;41.832;23.494;2022-08-20T02:08:19;14.05;;;11.32;;
70045;SDS011;57385;41.832;23.494;2022-08-20T02:08:39;14.63;;;11.52;;
70045;SDS011;57385;41.832;23.494;2022-08-20T02:09:00;14.65;;;11.82;;
70045;SDS011;57385;41.832;23.494;2022-08-20T02:09:23;13.00;;;11.68;;
70045;SDS011;57385;41.832;23.494;2022-08-20T02:09:44;12.77;;;11.57;;
70045;SDS011;57385;41.832;23.494;2022-08-20T02:10:05;14.32;;;11.75;;
70045;SDS011;57385;41.832;23.494;2022-08-20T02:10:27;17.23;;;12.60;;
70045;SDS011;57385;41.832;23.494;2022-08-20T02:10:47;15.30;;;12.45;;
70045;SDS011;57385;41.832;23.494;2022-08-20T02:11:08;14.15;;;12.43;;
70045;SDS011;57385;41.832;23.494;2022-08-20T02:11:29;14.88;;;12.15;;